Nearby METAR Reports

 

LSZS - Samedan, Switzerland
Distance from station: NNE 34mi, 55km
Updated: Mon, 22-Apr-2024 5:50pm PDT
Light snow, Mostly cloudy
Light snow, Mostly cloudy
 Wind from NNE
Wind: NNE 13 mph , 20 km/h
Temperature: 25°F , -4°C
Wind Chill: 13°F , -11°C
Dew Point: 21°F , -6°C
Humidity: 86%
Barometer: 29.77 inHg , 1008 hPa
Summary: Light Snow
Clouds: Mostly Cloudy
Visibility: 6 miles , 10 km
Cloud details: Few Clouds 3600 ft
Mostly Cloudy 7500 ft
2024/04/23 00:50 LSZS 230050Z AUTO 02011KT 9999 -SN FEW036 BKN075 M04/M06 Q1008
LSZA - Lugano (pvt/Aut), Switzerland
Distance from station: WSW 31mi, 50km
Updated: Mon, 22-Apr-2024 5:50pm PDT
Mostly Cloudy
Mostly Cloudy
 Wind from varies
Wind: varies 1 mph , 2 km/h
Temperature: 41°F , 5°C
Dew Point: 37°F , 3°C
Humidity: 87%
Barometer: 29.85 inHg , 1011 hPa
Clouds: Mostly Cloudy
Visibility: 6 miles , 10 km
Cloud details: Few Clouds 7000 ft
Mostly Cloudy 8000 ft
Mostly Cloudy 9000 ft
2024/04/23 00:50 LSZA 230050Z AUTO VRB01KT 9999 FEW070 BKN080 BKN090 05/03 Q1011
 
LSZL - Locarno, Switzerland
Distance from station: W 32mi, 51km
Updated: Mon, 22-Apr-2024 5:50pm PDT
Partly Cloudy
Partly Cloudy
 Wind from E
Wind: E 2 mph , 4 km/h
Temperature: 41°F , 5°C
Dew Point: 39°F , 4°C
Humidity: 93%
Barometer: 29.85 inHg , 1011 hPa
Clouds: Partly Cloudy
Visibility: 6 miles , 10 km
Cloud details: Few Clouds 6900 ft
Partly Cloudy 8600 ft
2024/04/23 00:50 LSZL 230050Z AUTO 08002KT 9999NDV FEW069 SCT086 05/04 Q1011 RMK
LIME - Bergamo/Orio Ser, Italy
Distance from station: SSE 31mi, 50km
Updated: Mon, 22-Apr-2024 5:50pm PDT
Light rain, Mostly cloudy
Light rain, Mostly cloudy
 Wind from WSW
Wind: WSW 5 mph , 7 km/h
Temperature: 41°F , 5°C
Wind Chill: 38°F , 3°C
Dew Point: 41°F , 5°C
Humidity: 100%
Barometer: 29.85 inHg , 1011 hPa
Summary: Light Rain
Clouds: Mostly Cloudy
Visibility: 5 miles , 8 km
Cloud details: Few Clouds 300 ft
Mostly Cloudy 3000 ft
2024/04/23 00:50 LIME 230050Z 24004KT 220V280 8000 -RA FEW003 BKN030 05/05 Q1011 NOSIG
 
LIML - Milano/Linate, Italy
Distance from station: SSW 46mi, 74km
Updated: Mon, 22-Apr-2024 5:50pm PDT
Light rain, Mostly cloudy
Light rain, Mostly cloudy
 Wind from SW
Wind: SW 3 mph , 6 km/h
Temperature: 41°F , 5°C
Dew Point: 41°F , 5°C
Humidity: 100%
Barometer: 29.85 inHg , 1011 hPa
Summary: Light Rain
Clouds: Mostly Cloudy
Visibility: 6 miles , 10 km
Cloud details: Partly Cloudy 1000 ft
Mostly Cloudy 2500 ft
2024/04/23 00:50 LIML 230050Z 22003KT 190V260 9999 -RA SCT010 BKN025 05/05 Q1011 NOSIG
LIMC - Milano/Malpensa, Italy
Distance from station: SW 52mi, 84km
Updated: Mon, 22-Apr-2024 5:50pm PDT
Light rain, Mostly cloudy
Light rain, Mostly cloudy
 Wind from SSE
Wind: SSE 3 mph , 6 km/h
Temperature: 41°F , 5°C
Dew Point: 39°F , 4°C
Humidity: 93%
Barometer: 29.85 inHg , 1011 hPa
Summary: Light Rain
Clouds: Mostly Cloudy
Visibility: 4 miles , 7 km
Cloud details: Mostly Cloudy 1800 ft
2024/04/23 00:50 LIMC 230050Z 16003KT 130V200 7000 -RA BKN018 05/04 Q1011 NOSIG
 
LIPO - Brescia/Montichi, Italy
Distance from station: SSE 57mi, 91km
Updated: Mon, 22-Apr-2024 5:50pm PDT
Light rain, Mist, Mostly cloudy
Light rain, Mist, Mostly cloudy
 Wind from WSW
Wind: WSW 8 mph , 13 km/h
Temperature: 41°F , 5°C
Wind Chill: 36°F , 2°C
Dew Point: 41°F , 5°C
Humidity: 100%
Barometer: 29.85 inHg , 1011 hPa
Summary: Light rain, Mist
Clouds: Mostly Cloudy
Visibility: 2 miles , 3 km
Cloud details: Mostly Cloudy 500 ft
2024/04/23 00:50 LIPO 230050Z 24007KT 3000 -RA BR BKN005 05/05 Q1011
LIPB - Bolzano(Civ/It-A, Italy
Distance from station: ENE 72mi, 116km
Updated: Mon, 22-Apr-2024 1:50pm PDT
NOT Current
Mostly Cloudy
Mostly Cloudy
 Wind from varies
Wind: varies 1 mph , 2 km/h
Temperature: 43°F , 6°C
Dew Point: 41°F , 5°C
Humidity: 93%
Barometer: 29.91 inHg , 1013 hPa
Clouds: Mostly Cloudy
Visibility: 6 miles , 10 km
Cloud details: Mostly Cloudy 6000 ft
2024/04/22 20:50 LIPB 222050Z VRB01KT 9999 BKN060 06/05 Q1013
 
LIVE - Resia Pass, Italy
Distance from station: NNE 56mi, 90km
Updated: Mon, 22-Apr-2024 2:55pm PDT
NOT Current
Partly Cloudy
Partly Cloudy
 Wind from NE
Wind: NE 5 mph , 7 km/h
Temperature: 30°F , -1°C
Wind Chill: 25°F , -4°C
Dew Point: 23°F , -5°C
Humidity: 75%
Barometer: 29.83 inHg , 1010 hPa
Clouds: Partly Cloudy
Visibility: 5 miles , 8 km
2024/04/22 21:55 LIVE 222155Z 05004KT 8000 NSC M01/M05 Q1010
LIVR - Rolle Pass, Italy
Distance from station: E 91mi, 146km
Updated: Mon, 22-Apr-2024 9:55am PDT
NOT Current
Light snow, Freezing, Fog
Light snow, Freezing, Fog
 Wind from NE
Wind: NE 12 mph , 19 km/h
Temperature: 23°F , -5°C
Wind Chill: 11°F , -12°C
Dew Point: 19°F , -7°C
Humidity: 86%
Barometer: 29.74 inHg , 1007 hPa
Summary: Light snow, Freezing, Fog
Visibility: 0 mile , 0 km
2024/04/22 16:55 LIVR 221655Z 04010KT 0150 -SN FZFG VV/// M05/M07 Q1007
 
LIMS - Piacenza (it-Afb, Italy
Distance from station: S 87mi, 140km
Updated: Mon, 22-Apr-2024 10:55am PDT
NOT Current
Light rain, Mist, Mostly cloudy
Light rain, Mist, Mostly cloudy
 Wind from ENE
Wind: ENE 6 mph , 9 km/h
Temperature: 43°F , 6°C
Wind Chill: 39°F , 4°C
Dew Point: 43°F , 6°C
Humidity: 100%
Barometer: 29.88 inHg , 1012 hPa
Summary: Light rain, Mist
Clouds: Mostly Cloudy
Visibility: 2 miles , 4 km
Cloud details: Partly Cloudy 500 ft
Mostly Cloudy 1800 ft
2024/04/22 17:55 LIMS 221755Z 07005KT 040V110 3500 -RA BR SCT005 BKN018 06/06 Q1012
LIPE - Bologna/Borgo (a, Italy
Distance from station: NW 2mi, 4km
Updated: Mon, 22-Apr-2024 5:50pm PDT
Overcast
Overcast
 Wind from W
Wind: W 9 mph , 15 km/h
Temperature: 41°F , 5°C
Wind Chill: 35°F , 2°C
Dew Point: 41°F , 5°C
Humidity: 100%
Barometer: 29.85 inHg , 1011 hPa
Clouds: Overcast
Visibility: 3 miles , 5 km
Cloud details: Few Clouds 400 ft
Overcast 1500 ft
2024/04/23 00:50 LIPE 230050Z AUTO 28008KT 5000 // FEW004/// OVC015/// 05/05 Q1011 REDZ
 
LIRQ - Firenze/Peretola, Italy
Distance from station: S 50mi, 80km
Updated: Mon, 22-Apr-2024 5:50pm PDT
Partly Cloudy
Partly Cloudy
 Wind from NW
Wind: NW 3 mph , 6 km/h
Temperature: 43°F , 6°C
Dew Point: 41°F , 5°C
Humidity: 93%
Barometer: 29.8 inHg , 1009 hPa
Clouds: Partly Cloudy
Visibility: 6 miles , 10 km
Cloud details: Partly Cloudy 3000 ft
2024/04/23 00:50 LIRQ 230050Z 32003KT 260V350 9999 SCT030 06/05 Q1009
LIPR - Rimini (civ/It-A, Italy
Distance from station: ESE 71mi, 115km
Updated: Mon, 22-Apr-2024 5:50pm PDT
Few Clouds
Few Clouds
 Wind from W
Wind: W 7 mph , 11 km/h
Temperature: 45°F , 7°C
Wind Chill: 41°F , 5°C
Dew Point: 41°F , 5°C
Humidity: 87%
Barometer: 29.8 inHg , 1009 hPa
Clouds: Few Clouds
Visibility: 6 miles , 10 km
Cloud details: Few Clouds 6900 ft
2024/04/23 00:50 LIPR 230050Z AUTO 28006KT 9999 // FEW069/// 07/05 Q1009
 
LIRP - Pisa (civ/It-Afb, Italy
Distance from station: SW 75mi, 120km
Updated: Mon, 22-Apr-2024 5:45pm PDT
Few Clouds
Few Clouds
 Wind from SE
Wind: SE 9 mph , 15 km/h
Temperature: 46°F , 8°C
Wind Chill: 41°F , 5°C
Dew Point: 45°F , 7°C
Humidity: 93%
Barometer: 29.77 inHg , 1008 hPa
Clouds: Few Clouds
Visibility: 6 miles , 10 km
Cloud details: Few Clouds 4000 ft
2024/04/23 00:45 LIRP 230045Z 13008KT 9999 FEW040 08/07 Q1008 NOSIG
LIRU - Rome/Urbe (it-Af, Italy
Distance from station: N 4mi, 7km
Updated: Mon, 22-Apr-2024 10:50am PDT
NOT Current
Partly Cloudy
Partly Cloudy
 Wind from SW
Wind: SW 5 mph , 7 km/h
Temperature: 57°F , 14°C
Dew Point: 50°F , 10°C
Humidity: 77%
Barometer: 29.8 inHg , 1009 hPa
Clouds: Partly Cloudy
Visibility: 6 miles , 10 km
Cloud details: Partly Cloudy 2500 ft
2024/04/22 17:50 LIRU 221750Z 23004KT 210V280 9999 SCT025 14/10 Q1009
 
LIRN - Naples/Capodichi, Italy
Distance from station: SE 116mi, 187km
Updated: Mon, 22-Apr-2024 5:20pm PDT
Clear
Clear
 Wind from N
Wind: N 1 mph , 2 km/h
Temperature: 54°F , 12°C
Dew Point: 48°F , 9°C
Humidity: 82%
Barometer: 29.83 inHg , 1010 hPa
Summary: Clear
Visibility: greater than 7 miles , 10 km
2024/04/23 00:20 LIRN 230020Z 36001KT CAVOK 12/09 Q1010 NOSIG
LIPZ - Venezia/Tessera, Italy
Distance from station: NE 85mi, 137km
Updated: Mon, 22-Apr-2024 5:50pm PDT
Light rain, Mostly cloudy
Light rain, Mostly cloudy
 Wind from NNE
Wind: NNE 20 mph , 31 km/h
Temperature: 41°F , 5°C
Wind Chill: 32°F , 0°C
Dew Point: 39°F , 4°C
Humidity: 93%
Barometer: 29.85 inHg , 1011 hPa
Summary: Light Rain
Clouds: Mostly Cloudy
Visibility: 6 miles , 10 km
Cloud details: Mostly Cloudy 3000 ft
2024/04/23 00:50 LIPZ 230050Z 03017KT 9999 -RA BKN030 05/04 Q1011 NOSIG
 
LICJ - Palermo/Point Ra, Italy
Distance from station: W 14mi, 22km
Updated: Mon, 22-Apr-2024 5:50pm PDT
Clear
Clear
 Wind from S
Wind: S 6 mph , 9 km/h
Temperature: 54°F , 12°C
Dew Point: 45°F , 7°C
Humidity: 72%
Barometer: 29.83 inHg , 1010 hPa
Summary: Clear
Visibility: greater than 7 miles , 10 km
2024/04/23 00:50 LICJ 230050Z 17005KT CAVOK 12/07 Q1010
LFMN - Nice/Cote D'azur, France
Distance from station: SW 6mi, 9km
Updated: Mon, 22-Apr-2024 6:00pm PDT
Partly Cloudy
Partly Cloudy
 Wind from NNW
Wind: NNW 12 mph , 19 km/h
Temperature: 45°F , 7°C
Wind Chill: 39°F , 4°C
Dew Point: 39°F , 4°C
Humidity: 81%
Barometer: 29.8 inHg , 1009 hPa
Clouds: Partly Cloudy
Visibility: 6 miles , 10 km
Cloud details: Few Clouds 3600 ft
Partly Cloudy 20000 ft
2024/04/23 01:00 LFMN 230100Z 33010KT 9999 FEW036 SCT200 07/04 Q1009 NOSIG
 
LFPO - Paris/Orly, France
Distance from station: S 10mi, 15km
Updated: Mon, 22-Apr-2024 6:00pm PDT
Clear
Clear
 Wind from NNE
Wind: NNE 6 mph , 9 km/h
Temperature: 41°F , 5°C
Wind Chill: 37°F , 3°C
Dew Point: 36°F , 2°C
Humidity: 81%
Barometer: 30.18 inHg , 1022 hPa
Summary: Clear
Visibility: greater than 7 miles , 10 km
2024/04/23 01:00 LFPO 230100Z AUTO 02005KT CAVOK 05/02 Q1022 NOSIG
EDDM - Munich-Flughafen, Germany
Distance from station: NE 18mi, 30km
Updated: Mon, 22-Apr-2024 5:50pm PDT
Mostly Cloudy
Mostly Cloudy
 Wind from NE
Wind: NE 8 mph , 13 km/h
Temperature: 37°F , 3°C
Wind Chill: 31°F , -1°C
Dew Point: 28°F , -2°C
Humidity: 70%
Barometer: 30 inHg , 1016 hPa
Clouds: Mostly Cloudy
Visibility: 6 miles , 10 km
Cloud details: Partly Cloudy 3400 ft
Mostly Cloudy 4500 ft
2024/04/23 00:50 EDDM 230050Z AUTO 04007KT 010V080 9999 SCT034 BKN045 03/M02 Q1016 NOSIG
 
LOWW - Vienna/Schwechat, Austria
Distance from station: SE 11mi, 18km
Updated: Mon, 22-Apr-2024 5:50pm PDT
Partly Cloudy
Partly Cloudy
 Wind from NNE
Wind: NNE 10 mph , 17 km/h
Temperature: 37°F , 3°C
Wind Chill: 30°F , -1°C
Dew Point: 30°F , -1°C
Humidity: 75%
Barometer: 30.06 inHg , 1018 hPa
Clouds: Partly Cloudy
Visibility: 6 miles , 10 km
Cloud details: Few Clouds 4800 ft
Partly Cloudy 5000 ft
2024/04/23 00:50 LOWW 230050Z 02009KT 9999 FEW048 SCT050 03/M01 Q1018 NOSIG
KSFO - San Francisco, California, USA
Distance from station: SSE 11mi, 18km
Updated: Mon, 22-Apr-2024 5:56pm PDT
Few Clouds
Few Clouds
 Wind from SW
Wind: SW 14 mph , 22 km/h, Gust: 21 mph , 33 km/h
Temperature: 63°F , 17°C
Dew Point: 48°F , 9°C
Humidity: 59%
Barometer: 29.81 inHg , 1009.5 hPa
Clouds: Few Clouds
Visibility: 10 miles , 16 km
Cloud details: Few Clouds 3000 ft
Few Clouds 20000 ft
2024/04/23 00:56 KSFO 230056Z 22012G18KT 10SM FEW030 FEW200 17/09 A2981 RMK AO2 SLP095 T01670089 $
 
KNYC - Nyc/Central Park, New York, USA
Distance from station: NNE 5mi, 8km
Updated: Mon, 22-Apr-2024 5:51pm PDT
Clear
Clear
 Wind from varies
Wind: varies 6 mph , 9 km/h
Temperature: 52°F , 11°C
Dew Point: 34°F , 1°C
Humidity: 50%
Barometer: 30.13 inHg , 1020.3 hPa
Clouds: Clear
Visibility: 10 miles , 16 km
2024/04/23 00:51 KNYC 230051Z AUTO VRB05KT 10SM CLR 11/01 A3013 RMK AO2 SLP194 T01060006 $

Metar display script from Saratoga-Weather.org